Time;durP1;ratioP1;P1;durP2;ratioP2;P2;SDS_P1;SDS_P2;PMS_P1;PMS_P2;Temp;Humidity;BMP_temperature;BMP_pressure;BME280_temperature;BME280_humidity;BME280_pressure;Samples;Min_cycle;Max_cycle;Signal;HPM_P1;HPM_P2
2022/09/16 14:03:53;;;;;;;;;;;;;;;21.07;55.76;96417.16;4207821;27;10419;-78
2022/09/16 14:06:45;;;;;;;;;;;;;;;21.31;55.09;96412.06;4199691;28;5716;-78
2022/09/16 14:08:57;;;;;;;;;;;;;;;21.47;55.07;96416.31;4145981;28;5886;-78
2022/09/16 14:11:06;;;;;;;;;;;;;;;21.62;54.57;96418.16;4161956;28;5872;-78
2022/09/16 14:13:12;;;;;;;;;;;;;;;21.76;54.29;96430.00;4160601;28;5933;-77
2022/09/16 14:15:16;;;;;;;;;;;;;;;21.79;54.02;96424.06;4157903;28;5880;-77
2022/09/16 14:17:27;;;;;;;;;;;;;;;21.85;54.05;96430.22;4161950;28;5846;-77
2022/09/16 14:19:36;;;;;;;;;;;;;;;21.92;53.98;96433.44;4154386;28;5917;-77
2022/09/16 14:21:39;;;;;;;;;;;;;;;21.96;53.79;96426.41;4146399;28;5850;-77
2022/09/16 14:23:42;;;;;;;;;;;;;;;22.02;53.54;96428.84;4145860;28;6633;-77
2022/09/16 14:25:45;;;;;;;;;;;;;;;22.03;53.27;96427.75;4146503;28;5928;-77
2022/09/16 14:27:48;;;;;;;;;;;;;;;22.03;53.11;96426.94;4151143;28;5839;-77
2022/09/16 14:29:55;;;;;;;;;;;;;;;21.95;53.38;96427.50;4162579;28;5790;-77
2022/09/16 14:31:58;;;;;;;;;;;;;;;21.89;53.12;96432.09;4162610;28;5806;-78
2022/09/16 14:34:07;;;;;;;;;;;;;;;21.79;53.11;96418.69;4162536;28;5794;-77
2022/09/16 14:36:18;;;;;;;;;;;;;;;21.77;52.68;96423.53;4162551;28;5806;-77
2022/09/16 14:38:25;;;;;;;;;;;;;;;21.74;52.73;96422.19;4162362;28;5797;-77
2022/09/16 14:40:47;;;;;;;;;;;;;;;21.81;52.26;96427.28;4162535;28;5789;-77
2022/09/16 14:42:55;;;;;;;;;;;;;;;21.72;52.05;96423.53;4184554;28;5702;-77
2022/09/16 14:45:00;;;;;;;;;;;;;;;21.66;52.03;96414.69;4213859;28;5715;-77
2022/09/16 14:47:09;;;;;;;;;;;;;;;21.65;51.94;96414.97;4214188;28;5703;-79
2022/09/16 14:49:30;;;;;;;;;;;;;;;21.65;51.94;96412.28;4213934;28;5706;-77
2022/09/16 14:51:35;;;;;;;;;;;;;;;21.67;51.81;96421.66;4213705;28;5687;-78
2022/09/16 14:53:38;;;;;;;;;;;;;;;21.65;51.60;96415.75;4213587;28;5760;-78
2022/09/16 14:55:49;;;;;;;;;;;;;;;21.70;51.23;96420.31;4213895;28;5762;-77
2022/09/16 14:57:52;;;;;;;;;;;;;;;21.71;51.42;96416.53;4213922;28;5710;-78
2022/09/16 14:59:57;;;;;;;;;;;;;;;21.71;51.19;96419.22;4213912;28;6736;-77
2022/09/16 15:02:06;;;;;;;;;;;;;;;21.80;50.81;96415.72;4212510;28;5694;-78
2022/09/16 15:04:17;;;;;;;;;;;;;;;21.90;50.75;96412.19;4204365;28;5718;-79
2022/09/16 15:06:24;;;;;;;;;;;;;;;21.88;50.57;96408.97;4198989;28;5922;-78
2022/09/16 15:08:33;;;;;;;;;;;;;;;21.92;50.75;96411.91;4189235;28;5829;-79
2022/09/16 15:10:36;;;;;;;;;;;;;;;21.93;50.34;96410.84;4202513;28;5698;-79
2022/09/16 15:12:57;;;;;;;;;;;;;;;21.88;50.25;96417.03;4202612;28;6395;-76
2022/09/16 15:15:05;;;;;;;;;;;;;;;21.83;50.46;96414.34;4192050;28;6418;-77
2022/09/16 15:17:08;;;;;;;;;;;;;;;21.81;49.83;96421.91;4196865;28;5687;-77
2022/09/16 15:19:20;;;;;;;;;;;;;;;21.75;50.01;96423.00;4202275;28;6367;-79
2022/09/16 15:21:27;;;;;;;;;;;;;;;21.74;49.87;96421.38;4202349;28;5817;-77
2022/09/16 15:23:33;;;;;;;;;;;;;;;21.71;49.83;96422.72;4200912;28;5694;-79
2022/09/16 15:25:38;;;;;;;;;;;;;;;21.76;49.55;96424.63;4202216;28;5777;-78
2022/09/16 15:27:40;;;;;;;;;;;;;;;21.73;49.59;96423.25;4202456;28;5797;-78
2022/09/16 15:29:49;;;;;;;;;;;;;;;21.68;49.77;96420.59;4202614;28;5849;-78
2022/09/16 15:31:52;;;;;;;;;;;;;;;21.73;49.81;96425.13;4202195;28;5679;-78
2022/09/16 15:33:57;;;;;;;;;;;;;;;21.68;49.38;96422.47;4200392;28;5841;-78
2022/09/16 15:36:01;;;;;;;;;;;;;;;21.59;49.61;96424.09;4199978;28;7360;-79
2022/09/16 15:38:12;;;;;;;;;;;;;;;21.48;49.62;96429.50;4185500;28;5052;-78
2022/09/16 15:40:34;;;;;;;;;;;;;;;21.50;49.59;96419.28;4185424;28;5835;-78
2022/09/16 15:42:41;;;;;;;;;;;;;;;21.46;49.08;96425.47;4185572;28;5723;-79
2022/09/16 15:44:48;;;;;;;;;;;;;;;21.42;49.09;96424.41;4185656;28;5716;-79
2022/09/16 15:46:52;;;;;;;;;;;;;;;21.32;49.48;96430.59;4185132;28;5709;-79
2022/09/16 15:48:58;;;;;;;;;;;;;;;21.27;49.20;96427.09;4185491;28;5822;-79
2022/09/16 15:51:06;;;;;;;;;;;;;;;21.20;48.92;96440.78;4184017;28;5795;-79
2022/09/16 15:53:12;;;;;;;;;;;;;;;21.15;49.20;96438.88;4184238;28;5740;-78
2022/09/16 15:55:28;;;;;;;;;;;;;;;21.12;48.88;96441.31;4185238;28;5779;-79
2022/09/16 15:57:46;;;;;;;;;;;;;;;20.97;49.01;96446.69;4185255;28;6267;-79
2022/09/16 16:00:08;;;;;;;;;;;;;;;20.79;48.82;96435.38;4183892;28;5731;-78
2022/09/16 16:02:24;;;;;;;;;;;;;;;20.80;48.64;96438.88;4191349;28;5590;-78
2022/09/16 16:04:30;;;;;;;;;;;;;;;20.89;48.71;96443.44;4187332;28;7722;-80
2022/09/16 16:06:52;;;;;;;;;;;;;;;20.90;48.39;96439.69;4185239;28;5724;-78
2022/09/16 16:08:57;;;;;;;;;;;;;;;20.94;48.15;96437.25;4184846;28;5843;-80
2022/09/16 16:11:07;;;;;;;;;;;;;;;20.84;48.32;96430.03;4185306;28;5709;-71
2022/09/16 16:13:11;;;;;;;;;;;;;;;20.86;48.19;96440.50;4184913;28;5712;-68
2022/09/16 16:15:16;;;;;;;;;;;;;;;20.85;47.87;96437.00;4183967;28;5740;-76
2022/09/16 16:17:22;;;;;;;;;;;;;;;20.92;47.61;96437.53;4201066;28;5683;-73
2022/09/16 16:19:27;;;;;;;;;;;;;;;21.02;47.50;96435.94;4195900;28;5849;-77
2022/09/16 16:21:30;;;;;;;;;;;;;;;21.05;47.57;96440.78;4200121;28;6409;-73
2022/09/16 16:23:33;;;;;;;;;;;;;;;21.01;47.18;96437.81;4185587;28;5712;-69
2022/09/16 16:25:36;;;;;;;;;;;;;;;21.05;47.12;96440.78;4185923;28;5785;-70
2022/09/16 16:27:38;;;;;;;;;;;;;;;21.01;46.93;96440.50;4201394;28;5702;-76
2022/09/16 16:29:42;;;;;;;;;;;;;;;21.02;46.86;96435.94;4201438;28;5699;-72
2022/09/16 16:32:04;;;;;;;;;;;;;;;21.06;46.79;96447.75;4201628;28;6534;-72
2022/09/16 16:34:09;;;;;;;;;;;;;;;21.12;47.04;96444.00;4193398;28;5735;-72
2022/09/16 16:36:13;;;;;;;;;;;;;;;21.12;46.54;96439.44;4200907;28;5694;-72
2022/09/16 16:38:16;;;;;;;;;;;;;;;21.12;46.51;96444.00;4200844;28;5711;-71
2022/09/16 16:40:19;;;;;;;;;;;;;;;21.16;46.26;96445.88;4201322;28;5894;-72
2022/09/16 16:42:22;;;;;;;;;;;;;;;21.12;46.52;96446.69;4201036;28;7229;-72
2022/09/16 16:44:26;;;;;;;;;;;;;;;21.07;46.19;96458.25;4201151;28;5868;-72
2022/09/16 16:46:30;;;;;;;;;;;;;;;21.04;46.04;96452.59;4200926;28;5756;-72
2022/09/16 16:48:33;;;;;;;;;;;;;;;21.06;46.37;96458.50;4200909;28;5711;-73
2022/09/16 16:50:35;;;;;;;;;;;;;;;21.02;46.25;96454.75;4201119;28;5762;-71
2022/09/16 16:52:39;;;;;;;;;;;;;;;21.03;45.91;96456.34;4200626;28;5781;-70
2022/09/16 16:54:42;;;;;;;;;;;;;;;21.06;46.11;96453.94;4200808;28;5845;-72
2022/09/16 16:56:45;;;;;;;;;;;;;;;21.00;46.09;96459.59;4200985;28;5778;-72
2022/09/16 16:58:48;;;;;;;;;;;;;;;20.87;46.11;96453.66;4200770;28;6372;-72
2022/09/16 17:00:51;;;;;;;;;;;;;;;20.78;46.05;96462.50;4200786;28;5707;-72
2022/09/16 17:02:55;;;;;;;;;;;;;;;20.75;45.84;96453.09;4198539;28;5691;-72
2022/09/16 17:04:58;;;;;;;;;;;;;;;20.71;45.97;96452.00;4184192;28;5723;-72
2022/09/16 17:07:01;;;;;;;;;;;;;;;20.69;45.62;96456.84;4183870;28;5708;-72
2022/09/16 17:09:24;;;;;;;;;;;;;;;20.58;45.53;96458.69;4183958;28;5708;-72
2022/09/16 17:11:27;;;;;;;;;;;;;;;20.53;45.45;96460.56;4184077;28;5803;-72
2022/09/16 17:13:30;;;;;;;;;;;;;;;20.53;45.24;96460.56;4184161;28;5727;-73
2022/09/16 17:15:33;;;;;;;;;;;;;;;20.52;45.59;96464.34;4183787;28;5715;-72
2022/09/16 17:17:35;;;;;;;;;;;;;;;20.44;45.30;96460.28;4183995;28;5975;-72
2022/09/16 17:19:39;;;;;;;;;;;;;;;20.39;45.40;96452.19;4183911;28;5712;-72
2022/09/16 17:21:43;;;;;;;;;;;;;;;20.40;45.51;96453.00;4192761;28;5690;-72
2022/09/16 17:23:46;;;;;;;;;;;;;;;20.34;45.24;96452.94;4200383;28;5782;-72
2022/09/16 17:25:49;;;;;;;;;;;;;;;20.33;45.51;96445.16;4200293;28;5711;-72
2022/09/16 17:27:52;;;;;;;;;;;;;;;20.43;45.00;96447.13;4200268;28;5691;-72
2022/09/16 17:29:55;;;;;;;;;;;;;;;20.46;45.07;96443.91;4199170;28;5809;-73
2022/09/16 17:32:01;;;;;;;;;;;;;;;20.43;45.32;96447.13;4200453;28;5939;-71
2022/09/16 17:34:06;;;;;;;;;;;;;;;20.37;45.09;96446.25;4200488;28;7368;-72
2022/09/16 17:36:12;;;;;;;;;;;;;;;20.39;45.09;96446.00;4194747;28;5694;-72
2022/09/16 17:38:15;;;;;;;;;;;;;;;20.44;45.23;96446.03;4199927;28;5781;-71
2022/09/16 17:40:19;;;;;;;;;;;;;;;20.52;45.00;96448.22;4198997;28;5844;-71
2022/09/16 17:42:21;;;;;;;;;;;;;;;20.54;45.01;96449.56;4200104;28;7710;-72
2022/09/16 17:44:24;;;;;;;;;;;;;;;20.52;45.27;96456.28;4200397;28;5746;-71
2022/09/16 17:46:27;;;;;;;;;;;;;;;20.48;45.19;96452.47;4200367;28;6272;-71
2022/09/16 17:48:30;;;;;;;;;;;;;;;20.47;44.95;96453.56;4200501;28;5699;-72
2022/09/16 17:50:33;;;;;;;;;;;;;;;20.36;45.43;96453.50;4200162;28;5793;-71
2022/09/16 17:52:37;;;;;;;;;;;;;;;20.35;45.19;96449.19;4200061;28;5706;-71
2022/09/16 17:54:40;;;;;;;;;;;;;;;20.43;45.36;96460.53;4199956;28;5717;-72
2022/09/16 17:56:43;;;;;;;;;;;;;;;20.53;45.28;96461.38;4200247;28;5679;-72
2022/09/16 17:58:47;;;;;;;;;;;;;;;20.56;45.24;96466.22;4200249;28;5098;-72
2022/09/16 18:00:50;;;;;;;;;;;;;;;20.58;45.39;96468.63;4200198;28;5699;-72
2022/09/16 18:02:53;;;;;;;;;;;;;;;20.57;45.22;96467.03;4197927;28;5698;-72
2022/09/16 18:04:56;;;;;;;;;;;;;;;20.59;44.91;96470.25;4194921;28;5699;-72
2022/09/16 18:06:58;;;;;;;;;;;;;;;20.57;45.36;96475.06;4200330;28;5686;-71
2022/09/16 18:09:06;;;;;;;;;;;;;;;20.51;45.14;96460.84;4199760;28;5703;-72
2022/09/16 18:11:10;;;;;;;;;;;;;;;20.54;45.10;96473.72;4200266;28;5715;-72
2022/09/16 18:13:13;;;;;;;;;;;;;;;20.50;44.86;96461.06;4199903;28;5687;-71
2022/09/16 18:15:15;;;;;;;;;;;;;;;20.53;45.14;96460.56;4200635;28;5802;-72
2022/09/16 18:17:18;;;;;;;;;;;;;;;20.51;45.29;96463.53;4199960;28;5691;-72
2022/09/16 18:19:21;;;;;;;;;;;;;;;20.41;45.11;96476.06;4200089;28;5686;-71
2022/09/16 18:21:24;;;;;;;;;;;;;;;20.29;45.35;96474.41;4199574;28;5703;-71
2022/09/16 18:23:27;;;;;;;;;;;;;;;20.28;45.52;96472.00;4199586;28;5754;-72
2022/09/16 18:25:31;;;;;;;;;;;;;;;20.26;45.51;96472.25;4190051;28;5846;-73
2022/09/16 18:27:34;;;;;;;;;;;;;;;20.11;45.62;96474.88;4183241;28;5720;-73
2022/09/16 18:29:38;;;;;;;;;;;;;;;19.95;45.46;96486.59;4183361;28;5783;-72
2022/09/16 18:31:44;;;;;;;;;;;;;;;19.85;45.71;96481.19;4182025;28;5754;-73
2022/09/16 18:33:50;;;;;;;;;;;;;;;19.82;45.92;96479.00;4183551;28;5783;-71
2022/09/16 18:35:58;;;;;;;;;;;;;;;19.80;45.91;96487.28;4187139;28;5702;-71
2022/09/16 18:38:00;;;;;;;;;;;;;;;19.82;46.00;96490.56;4199726;28;5687;-71
2022/09/16 18:40:04;;;;;;;;;;;;;;;19.71;45.62;96487.00;4203090;28;5683;-73
2022/09/16 18:42:08;;;;;;;;;;;;;;;19.61;46.15;96478.06;4203102;28;5753;-73
2022/09/16 18:44:13;;;;;;;;;;;;;;;19.56;45.96;96480.69;4202884;28;5711;-72
2022/09/16 18:46:17;;;;;;;;;;;;;;;19.64;46.13;96483.72;4203046;28;5777;-72
2022/09/16 18:48:27;;;;;;;;;;;;;;;19.64;45.83;96482.91;4202875;28;5862;-72
2022/09/16 18:50:29;;;;;;;;;;;;;;;19.61;45.96;96486.13;4201556;28;5695;-72
2022/09/16 18:52:32;;;;;;;;;;;;;;;19.48;46.28;96495.38;4202446;28;5686;-73
2022/09/16 18:54:35;;;;;;;;;;;;;;;19.37;46.29;96499.84;4202776;28;5763;-73
2022/09/16 18:56:39;;;;;;;;;;;;;;;19.27;46.25;96490.91;4202698;28;5702;-73
2022/09/16 18:58:44;;;;;;;;;;;;;;;19.26;46.37;96489.31;4202648;28;5694;-73
2022/09/16 19:01:13;;;;;;;;;;;;;;;19.24;46.30;96496.75;4202698;28;5790;-73
2022/09/16 19:03:15;;;;;;;;;;;;;;;19.27;46.30;96507.00;4193889;28;6267;-72
2022/09/16 19:05:18;;;;;;;;;;;;;;;19.32;46.23;96499.00;4201124;28;5682;-72
2022/09/16 19:07:23;;;;;;;;;;;;;;;19.27;46.31;96496.28;4202539;28;5781;-72
2022/09/16 19:09:30;;;;;;;;;;;;;;;19.30;46.00;96496.56;4202096;28;5691;-70
2022/09/16 19:11:33;;;;;;;;;;;;;;;19.25;46.07;96507.22;4202397;28;5703;-72
2022/09/16 19:13:38;;;;;;;;;;;;;;;19.18;46.28;96504.78;4202465;28;5698;-72
2022/09/16 19:15:42;;;;;;;;;;;;;;;19.17;46.06;96497.81;4202841;28;5710;-72
2022/09/16 19:17:45;;;;;;;;;;;;;;;19.19;46.10;96506.38;4202402;28;5789;-72
2022/09/16 19:19:49;;;;;;;;;;;;;;;19.15;45.98;96509.84;4202088;28;6470;-72
2022/09/16 19:21:52;;;;;;;;;;;;;;;19.13;46.21;96506.59;4200793;28;5826;-72
2022/09/16 19:23:57;;;;;;;;;;;;;;;19.30;46.13;96511.84;4200671;28;5806;-72
2022/09/16 19:26:02;;;;;;;;;;;;;;;19.25;45.89;96514.47;4202720;28;5702;-71
2022/09/16 19:28:05;;;;;;;;;;;;;;;19.18;46.09;96520.84;4202619;28;5774;-72
2022/09/16 19:30:08;;;;;;;;;;;;;;;19.17;46.01;96513.88;4202402;28;5754;-71
2022/09/16 19:32:12;;;;;;;;;;;;;;;19.16;45.98;96511.47;4202212;28;5706;-71
2022/09/16 19:34:16;;;;;;;;;;;;;;;19.11;46.00;96527.47;4202031;28;6483;-72
2022/09/16 19:36:21;;;;;;;;;;;;;;;18.99;46.09;96524.13;4190105;28;5744;-72
2022/09/16 19:38:26;;;;;;;;;;;;;;;18.93;46.00;96528.66;4185339;28;5716;-71
2022/09/16 19:40:30;;;;;;;;;;;;;;;18.92;46.13;96526.22;4185798;28;5716;-72
2022/09/16 19:42:33;;;;;;;;;;;;;;;18.89;46.10;96522.16;4185984;28;5711;-72
2022/09/16 19:44:35;;;;;;;;;;;;;;;18.82;46.08;96521.56;4185474;28;5795;-72
2022/09/16 19:46:41;;;;;;;;;;;;;;;18.84;46.00;96530.16;4185564;28;5791;-71
2022/09/16 19:48:47;;;;;;;;;;;;;;;18.85;46.03;96532.56;4185277;28;5715;-71
2022/09/16 19:50:51;;;;;;;;;;;;;;;18.81;45.67;96536.03;4184941;28;5811;-72
2022/09/16 19:52:54;;;;;;;;;;;;;;;18.82;45.97;96524.25;4184738;28;5799;-71
2022/09/16 19:54:57;;;;;;;;;;;;;;;18.72;45.82;96524.13;4185611;28;5851;-71
2022/09/16 19:57:02;;;;;;;;;;;;;;;18.71;45.79;96527.88;4185535;28;5716;-71
2022/09/16 19:59:06;;;;;;;;;;;;;;;18.70;46.00;96542.31;4185428;28;5898;-71
2022/09/16 20:01:10;;;;;;;;;;;;;;;18.66;46.05;96535.84;4184858;28;5617;-71
2022/09/16 20:03:13;;;;;;;;;;;;;;;18.77;45.82;96550.94;4191401;28;5724;-71
2022/09/16 20:05:17;;;;;;;;;;;;;;;18.76;45.81;96543.97;4185079;28;5720;-71
2022/09/16 20:07:21;;;;;;;;;;;;;;;18.69;45.94;96548.72;4185360;28;5744;-71
2022/09/16 20:09:24;;;;;;;;;;;;;;;18.71;45.54;96549.28;4184841;28;5711;-71
2022/09/16 20:11:31;;;;;;;;;;;;;;;18.63;45.87;96539.78;4185042;28;5783;-71
2022/09/16 20:13:34;;;;;;;;;;;;;;;18.61;46.07;96552.63;4185332;28;5712;-71
2022/09/16 20:15:37;;;;;;;;;;;;;;;18.57;45.98;96554.16;4185187;28;5744;-71
2022/09/16 20:17:40;;;;;;;;;;;;;;;18.51;45.96;96553.31;4184875;28;5740;-71
2022/09/16 20:19:43;;;;;;;;;;;;;;;18.41;46.04;96545.16;4184537;28;5761;-71
2022/09/16 20:21:47;;;;;;;;;;;;;;;18.46;46.00;96550.59;4184846;28;5740;-72
2022/09/16 20:23:52;;;;;;;;;;;;;;;18.48;46.05;96559.16;4188446;28;5732;-80
2022/09/16 20:25:56;;;;;;;;;;;;;;;18.49;45.91;96543.91;4197203;28;5788;-80
2022/09/16 20:31:35;;;;;;;;;;;;;;;18.58;45.66;96548.59;4197697;28;5886;-84
2022/09/16 20:33:39;;;;;;;;;;;;;;;18.60;45.62;96562.53;4190325;28;5772;-77
2022/09/16 20:35:42;;;;;;;;;;;;;;;18.54;45.64;96552.00;4184241;28;5759;-75
2022/09/16 20:37:46;;;;;;;;;;;;;;;18.52;45.70;96562.16;4190987;28;5691;-70
2022/09/16 20:39:49;;;;;;;;;;;;;;;18.58;45.26;96556.63;4191869;28;5914;-72
2022/09/16 20:41:52;;;;;;;;;;;;;;;18.52;45.16;96576.34;4186923;28;5811;-75
2022/09/16 20:43:55;;;;;;;;;;;;;;;18.42;45.53;96580.75;4184463;28;5844;-77
2022/09/16 20:46:03;;;;;;;;;;;;;;;18.36;45.40;96573.72;4184636;28;5720;-78
2022/09/16 20:48:07;;;;;;;;;;;;;;;18.52;45.20;96584.38;4194377;28;5694;-78
2022/09/16 20:50:10;;;;;;;;;;;;;;;18.54;44.92;96568.88;4189903;28;5752;-77
2022/09/16 20:52:13;;;;;;;;;;;;;;;18.38;45.04;96569.75;4184019;28;5076;-79
2022/09/16 20:54:21;;;;;;;;;;;;;;;18.28;44.97;96574.94;4184198;28;5712;-78
2022/09/16 20:56:25;;;;;;;;;;;;;;;18.21;44.91;96566.28;4184643;28;5807;-77
2022/09/16 20:58:28;;;;;;;;;;;;;;;18.18;44.89;96577.47;4166782;28;5162;-80
2022/09/16 21:00:31;;;;;;;;;;;;;;;18.13;44.85;96564.06;4184266;28;5802;-79
2022/09/16 21:02:34;;;;;;;;;;;;;;;18.15;44.94;96572.63;4182133;28;5798;-79
2022/09/16 21:04:37;;;;;;;;;;;;;;;18.13;44.86;96578.22;4183354;28;5719;-79
2022/09/16 21:06:42;;;;;;;;;;;;;;;18.21;44.77;96575.13;4183002;28;5777;-81
2022/09/16 21:08:45;;;;;;;;;;;;;;;18.27;44.69;96573.34;4184229;28;5783;-81
2022/09/16 21:10:52;;;;;;;;;;;;;;;18.18;44.36;96582.84;4184482;28;5858;-79
2022/09/16 21:12:56;;;;;;;;;;;;;;;18.11;44.67;96576.84;4183148;28;5727;-79
2022/09/16 21:14:59;;;;;;;;;;;;;;;18.16;44.65;96582.28;4184714;28;5736;-79
2022/09/16 21:17:02;;;;;;;;;;;;;;;18.21;44.70;96574.31;4184646;28;5723;-78
2022/09/16 21:19:12;;;;;;;;;;;;;;;18.12;44.60;96579.28;4190896;28;5711;-78
2022/09/16 21:21:18;;;;;;;;;;;;;;;18.13;44.79;96577.44;4199966;28;5721;-78
2022/09/16 21:23:21;;;;;;;;;;;;;;;18.29;44.61;96577.38;4201052;28;5155;-78
2022/09/16 21:25:24;;;;;;;;;;;;;;;18.43;44.76;96582.38;4201257;28;5875;-77
2022/09/16 21:27:31;;;;;;;;;;;;;;;18.50;44.35;96574.97;4200670;28;5695;-78
2022/09/16 21:29:34;;;;;;;;;;;;;;;18.57;44.45;96575.59;4201056;28;5797;-78
2022/09/16 21:31:39;;;;;;;;;;;;;;;18.68;44.41;96584.56;4199860;28;5778;-79
2022/09/16 21:33:43;;;;;;;;;;;;;;;18.73;44.48;96593.50;4189162;28;5795;-77
2022/09/16 21:35:50;;;;;;;;;;;;;;;18.80;44.25;96598.66;4183264;28;5724;-78
2022/09/16 21:37:53;;;;;;;;;;;;;;;18.87;44.46;96597.41;4183790;28;5827;-78
2022/09/16 21:39:56;;;;;;;;;;;;;;;18.95;44.35;96606.06;4183592;28;5716;-77
2022/09/16 21:41:59;;;;;;;;;;;;;;;19.00;44.26;96606.94;4194890;28;5691;-78
2022/09/16 21:44:04;;;;;;;;;;;;;;;19.02;44.34;96601.31;4194874;28;5715;-78
2022/09/16 21:46:10;;;;;;;;;;;;;;;19.00;44.15;96606.94;4183519;28;6405;-79
2022/09/16 21:48:15;;;;;;;;;;;;;;;18.94;44.35;96604.47;4184042;28;5798;-84
2022/09/16 21:50:17;;;;;;;;;;;;;;;18.98;44.25;96605.56;4186055;28;5747;-85
2022/09/16 21:52:20;;;;;;;;;;;;;;;19.04;44.37;96602.72;4201179;28;5817;-84
2022/09/16 21:54:26;;;;;;;;;;;;;;;19.09;44.05;96618.81;4201719;28;5880;-83
2022/09/16 21:56:30;;;;;;;;;;;;;;;19.03;44.13;96624.38;4199922;28;7404;-85
2022/09/16 21:58:34;;;;;;;;;;;;;;;19.04;44.19;96620.66;4186432;28;5807;-84
2022/09/16 22:00:39;;;;;;;;;;;;;;;19.05;44.11;96617.72;4185809;28;5720;-85
2022/09/16 22:02:42;;;;;;;;;;;;;;;19.16;43.90;96632.84;4185335;28;5728;-85
2022/09/16 22:04:46;;;;;;;;;;;;;;;19.20;43.90;96625.09;4186264;28;5716;-85
2022/09/16 22:06:51;;;;;;;;;;;;;;;19.19;43.72;96632.34;4185036;28;5724;-85
2022/09/16 22:08:55;;;;;;;;;;;;;;;19.19;43.81;96632.34;4200030;28;5690;-85
2022/09/16 22:11:02;;;;;;;;;;;;;;;19.24;43.96;96636.94;4195364;28;5100;-85
2022/09/16 22:13:05;;;;;;;;;;;;;;;19.26;43.67;96634.03;4184036;28;5723;-85
2022/09/16 22:15:09;;;;;;;;;;;;;;;19.28;43.87;96637.25;4185494;28;6378;-85
2022/09/16 22:17:13;;;;;;;;;;;;;;;19.30;43.87;96635.94;4186043;28;6413;-85
2022/09/16 22:19:18;;;;;;;;;;;;;;;19.35;43.60;96649.38;4187149;28;5721;-85
2022/09/16 22:21:22;;;;;;;;;;;;;;;19.38;43.76;96640.03;4186612;28;5799;-85
2022/09/16 22:23:26;;;;;;;;;;;;;;;19.38;43.56;96640.03;4186551;28;5789;-86
2022/09/16 22:25:28;;;;;;;;;;;;;;;19.42;43.41;96650.00;4186955;28;5720;-85
2022/09/16 22:27:31;;;;;;;;;;;;;;;19.45;43.48;96651.34;4186968;28;5771;-84
2022/09/16 22:29:40;;;;;;;;;;;;;;;19.47;43.45;96654.59;4185187;28;5911;-86
2022/09/16 22:31:46;;;;;;;;;;;;;;;19.47;43.30;96649.22;4186192;28;5720;-84
2022/09/16 22:33:52;;;;;;;;;;;;;;;19.38;43.51;96645.41;4198668;28;5691;-84
2022/09/16 22:35:55;;;;;;;;;;;;;;;19.38;43.38;96654.25;4188616;28;5720;-84
2022/09/16 22:37:58;;;;;;;;;;;;;;;19.41;43.43;96659.09;4200858;28;5423;-85
2022/09/16 22:40:01;;;;;;;;;;;;;;;19.42;43.24;96659.91;4194514;28;7790;-84
2022/09/16 22:42:04;;;;;;;;;;;;;;;19.47;42.98;96660.75;4198407;28;5861;-85
2022/09/16 22:44:07;;;;;;;;;;;;;;;19.47;43.14;96652.72;4194373;28;5698;-84
2022/09/16 22:46:12;;;;;;;;;;;;;;;19.51;43.02;96657.59;4189660;28;5739;-85
2022/09/16 22:48:18;;;;;;;;;;;;;;;19.49;43.14;96660.53;4186482;28;6967;-85
2022/09/16 22:50:23;;;;;;;;;;;;;;;19.49;42.99;96660.53;4194550;28;5687;-85
2022/09/16 22:52:25;;;;;;;;;;;;;;;19.48;43.04;96662.41;4196754;28;5673;-85
2022/09/16 22:54:31;;;;;;;;;;;;;;;19.49;43.00;96661.34;4201655;28;5687;-85
2022/09/16 22:56:34;;;;;;;;;;;;;;;19.48;42.95;96659.72;4201674;28;5797;-85
2022/09/16 22:58:37;;;;;;;;;;;;;;;19.51;43.10;96663.75;4201172;28;6468;-85
2022/09/16 23:00:40;;;;;;;;;;;;;;;19.51;43.12;96660.28;4190153;28;5720;-85
2022/09/16 23:02:43;;;;;;;;;;;;;;;19.53;42.83;96666.19;4186751;28;6575;-85
2022/09/16 23:04:45;;;;;;;;;;;;;;;19.54;42.76;96662.44;4195651;28;5699;-85
2022/09/16 23:06:50;;;;;;;;;;;;;;;19.52;42.84;96665.38;4193326;28;5712;-83
2022/09/16 23:08:53;;;;;;;;;;;;;;;19.52;42.84;96664.56;4197088;28;5801;-84
2022/09/16 23:10:56;;;;;;;;;;;;;;;19.54;42.95;96665.13;4192419;28;5724;-84
2022/09/16 23:13:00;;;;;;;;;;;;;;;19.55;42.62;96674.78;4197678;28;5855;-84
2022/09/16 23:15:05;;;;;;;;;;;;;;;19.55;42.69;96674.78;4192045;28;5785;-84
2022/09/16 23:17:08;;;;;;;;;;;;;;;19.55;42.75;96672.09;4194796;28;5918;-85
2022/09/16 23:19:12;;;;;;;;;;;;;;;19.56;42.67;96666.50;4200435;28;5775;-85
2022/09/16 23:21:16;;;;;;;;;;;;;;;19.57;42.79;96665.44;4196436;28;5748;-85
2022/09/16 23:23:22;;;;;;;;;;;;;;;19.58;42.68;96663.56;4192009;28;5572;-85
2022/09/16 23:25:25;;;;;;;;;;;;;;;19.56;42.82;96660.34;4198226;28;7723;-85
2022/09/16 23:27:29;;;;;;;;;;;;;;;19.57;42.55;96664.66;4190425;28;5788;-85
2022/09/16 23:29:31;;;;;;;;;;;;;;;19.58;42.71;96656.34;4195819;28;6498;-85
2022/09/16 23:31:39;;;;;;;;;;;;;;;19.58;42.51;96663.56;4189050;28;5725;-84
2022/09/16 23:33:43;;;;;;;;;;;;;;;19.57;42.88;96670.81;4197756;28;5969;-85
2022/09/16 23:35:47;;;;;;;;;;;;;;;19.55;42.60;96669.41;4197752;28;6912;-85
2022/09/16 23:37:50;;;;;;;;;;;;;;;19.58;42.72;96664.38;4201225;28;5770;-85
2022/09/16 23:39:54;;;;;;;;;;;;;;;19.57;42.48;96673.50;4191788;28;5817;-85
2022/09/16 23:41:57;;;;;;;;;;;;;;;19.56;42.78;96665.72;4196142;28;5698;-85
2022/09/16 23:44:00;;;;;;;;;;;;;;;19.54;42.61;96668.63;4191616;28;5728;-85
2022/09/16 23:46:04;;;;;;;;;;;;;;;19.53;42.52;96661.63;4192339;28;5825;-85
2022/09/16 23:48:06;;;;;;;;;;;;;;;19.51;42.63;96669.13;4200944;28;5826;-85
2022/09/16 23:50:10;;;;;;;;;;;;;;;19.50;42.77;96667.50;4191808;28;6295;-85
2022/09/16 23:52:13;;;;;;;;;;;;;;;19.49;42.71;96664.03;4197236;28;5826;-85
2022/09/16 23:54:16;;;;;;;;;;;;;;;19.48;42.63;96664.28;4198576;28;5813;-85
2022/09/16 23:56:20;;;;;;;;;;;;;;;19.50;42.50;96662.16;4198544;28;5803;-85
2022/09/16 23:58:23;;;;;;;;;;;;;;;19.47;42.43;96650.03;4189427;28;5890;-85
